CheckWX is a tool to help pilots better visualize weather data.  It is not intended as a substitute for an official pre-flight weather briefing.

12:37:09 UTC

KOCF METAR
Ocala International-Jim Taylor Field Airport
Ocala, Florida, USA
Current

46 mins ago

KOCF 161151Z COR 20005KT 10SM FEW050 22/22 A2991 RMK AO2 SLP130 60002 70003 T02220217 10228 20222 58003
Observed
Oct-16 @ 11:51 UTC
Wind
  • 200° at 5 KTS
Visibility
10 SM
Flight Rules
VFR
Cloud Levels
  • Few at 5,000' AGL
Temperature
22°C / 72°F
Dewpoint
22°C / 72°F
Humidity
100%
Altimeter
29.91" Hg
Pressure
1012.92 hPa
24 Hour Rain
0.03"
Previous

2 hours ago

KOCF 161051Z 17005KT 10SM SCT055 22/22 A2992 RMK AO2 LTG DSNT W AND NW SLP132 T02220217
Observed
Oct-16 @ 10:51 UTC
Wind
  • 170° at 5 KTS
Visibility
10 SM
Flight Rules
VFR
Cloud Levels
  • Scattered at 5,500' AGL
Temperature
22°C / 72°F
Dewpoint
22°C / 72°F
Humidity
100%
Altimeter
29.92" Hg
Pressure
1013.22 hPa
Previous

2 hours ago

KOCF 161016Z AUTO VRB03KT 10SM SCT014 22/22 A2992 RMK AO2
Observed
Oct-16 @ 10:16 UTC
Wind
  • Variable at 3 KTS
Visibility
10 SM
Flight Rules
VFR
Cloud Levels
  • Scattered at 1,400' AGL
Temperature
22°C / 72°F
Dewpoint
22°C / 72°F
Humidity
100%
Altimeter
29.92" Hg
Pressure
1013.22 hPa